Savoonga Airport Savoonga US
ICAO: PASA
IATA:
Category: Medium
Scheduled Services:

Elevation: 53 ft
TransAlt. 18000 ft.

Airport Communications:
AWOS 3:121.3
CTAF:122.7
NOME RDO:122.3

PASA Zoom In..

Runways:

(A) RW 05 length 4400 ft width 100 ft
---- / hdg 50

(B) RW 23 length 4400 ft width 100 ft
---- / hdg 230

Location; PASA
Day. 05 / Time. 17.56 Zulu
* Altimeter: 30.03
* Temperature: 01° c. 33.8°f.
* Wind from: 040° Speed 04 kn.
Dewpoint: 00° c.
Visibility: 9 Statute Miles.
Clouds: Overcast 300 ft.

PASA 051756Z AUTO 04004KT 9SM OVC003 01/00 A3003 RMK AO2 SLP170 T00060000 10017 21011 50003 FZRANO


Wind From 040°
Speed 04 kn.

 
 
jpsmedia worldairports.se 2020   terms of use